createdAt,value
2019-02-26T11:32:16.403Z,95.00
2019-02-26T11:34:45.466Z,95.90
2019-02-26T11:37:16.952Z,96.50
2019-02-26T11:39:46.692Z,94.90
2019-02-26T11:42:21.260Z,94.50
2019-02-26T11:44:52.867Z,95.20
2019-02-26T11:47:21.924Z,97.20
2019-02-26T11:49:51.732Z,95.20
2019-02-26T11:52:23.722Z,95.00
2019-02-26T11:54:53.238Z,94.00
2019-02-26T11:57:26.195Z,94.40
2019-02-26T11:59:57.058Z,95.70
2019-02-26T12:02:31.438Z,93.30
2019-02-26T12:05:02.602Z,95.80
2019-02-26T12:07:34.378Z,95.20
2019-02-26T12:10:09.422Z,94.70
2019-02-26T12:12:36.863Z,96.00
2019-02-26T12:15:10.069Z,93.70
2019-02-26T12:17:39.055Z,94.20
2019-02-26T12:20:14.624Z,94.40
2019-02-26T12:22:44.672Z,93.30
2019-02-26T12:25:16.342Z,92.30
2019-02-26T12:27:46.145Z,92.30
2019-02-26T12:30:18.610Z,91.70
2019-02-26T12:32:53.090Z,92.30
2019-02-26T12:35:22.396Z,92.90
2019-02-26T12:37:53.924Z,93.10
2019-02-26T12:40:27.486Z,93.30
2019-02-26T12:42:56.538Z,92.40
2019-02-26T12:45:31.776Z,92.00
2019-02-26T12:48:02.513Z,91.00
2019-02-26T12:50:36.585Z,91.80
2019-02-26T12:53:05.503Z,91.20
2019-02-26T12:55:38.348Z,89.40
2019-02-26T12:58:11.268Z,91.10
2019-02-26T13:00:42.290Z,91.20
2019-02-26T13:03:15.874Z,91.60
2019-02-26T13:05:49.078Z,92.30
2019-02-26T13:08:19.583Z,91.90
2019-02-26T13:10:56.142Z,91.20
2019-02-26T13:13:28.481Z,90.20
2019-02-26T13:15:59.814Z,90.80
2019-02-26T13:18:34.295Z,86.70
2019-02-26T13:21:09.313Z,85.70
2019-02-26T13:23:36.890Z,89.30
2019-02-26T13:26:10.853Z,86.90
2019-02-26T13:28:46.925Z,86.20
2019-02-26T13:31:18.039Z,89.10
2019-02-26T13:33:49.024Z,86.00
2019-02-26T13:36:20.515Z,86.90
2019-02-26T13:38:49.999Z,85.50
2019-02-26T13:41:29.499Z,86.00
2019-02-26T13:43:51.164Z,84.10
2019-02-26T13:46:20.434Z,87.70
2019-02-26T13:48:51.245Z,83.10
2019-02-26T13:51:20.363Z,81.70
2019-02-26T13:53:52.136Z,80.10
2019-02-26T13:56:22.027Z,78.80
2019-02-26T13:58:52.266Z,78.30
2019-02-26T14:01:21.706Z,74.90
2019-02-26T14:03:51.128Z,73.30
2019-02-26T14:06:21.868Z,77.70
2019-02-26T14:08:51.549Z,72.20
2019-02-26T14:11:21.480Z,71.10
2019-02-26T14:13:50.549Z,70.90
2019-02-26T14:16:19.794Z,73.70
2019-02-26T14:18:50.329Z,70.80
2019-02-26T14:21:20.721Z,75.30
2019-02-26T14:23:49.817Z,73.60
2019-02-26T14:26:20.623Z,70.80
2019-02-26T14:28:49.996Z,68.80
2019-02-26T14:31:19.014Z,68.60
2019-02-26T14:33:53.110Z,69.80
2019-02-26T14:36:22.252Z,68.80
2019-02-26T14:38:51.309Z,69.90
2019-02-26T14:41:24.617Z,69.10
2019-02-26T14:43:54.128Z,67.20
2019-02-26T14:46:23.515Z,67.00
2019-02-26T14:48:52.590Z,68.00
2019-02-26T14:51:21.891Z,76.40
2019-02-26T14:53:51.044Z,74.40
2019-02-26T14:56:20.870Z,75.00
2019-02-26T14:58:52.582Z,73.30
2019-02-26T15:01:21.740Z,70.90
2019-02-26T15:03:51.223Z,73.30
2019-02-26T15:06:20.374Z,70.50
2019-02-26T15:08:49.425Z,73.30
2019-02-26T15:11:18.910Z,72.10
2019-02-26T15:13:48.198Z,69.30
2019-02-26T15:16:19.374Z,71.60
2019-02-26T15:18:50.829Z,68.90
2019-02-26T15:21:20.173Z,70.40
2019-02-26T15:23:50.472Z,75.60
2019-02-26T15:26:21.483Z,77.40
2019-02-26T15:28:52.327Z,79.20
2019-02-26T15:31:21.994Z,73.80
2019-02-26T15:33:52.184Z,71.80
2019-02-26T15:36:22.859Z,75.10
2019-02-26T15:38:53.062Z,78.90
2019-02-26T15:41:22.139Z,79.20
2019-02-26T15:43:51.893Z,78.90
2019-02-26T15:46:22.444Z,76.30
2019-02-26T15:48:51.680Z,73.30
2019-02-26T15:51:23.395Z,75.20
2019-02-26T15:53:55.705Z,74.60
2019-02-26T15:56:24.452Z,76.20
2019-02-26T15:58:53.952Z,78.30
2019-02-26T16:01:23.082Z,77.10
2019-02-26T16:03:54.032Z,76.40
2019-02-26T16:06:23.054Z,72.10
2019-02-26T16:08:52.373Z,70.80
2019-02-26T16:11:21.478Z,67.80
2019-02-26T16:13:53.402Z,63.40
2019-02-26T16:16:22.582Z,60.80
2019-02-26T16:18:51.978Z,63.20
2019-02-26T16:21:22.006Z,63.90
2019-02-26T16:23:55.392Z,63.10
2019-02-26T16:26:24.426Z,62.90
2019-02-26T16:28:53.437Z,61.70
2019-02-26T16:31:22.477Z,60.60
2019-02-26T16:33:52.222Z,60.00
2019-02-26T16:36:21.927Z,62.30
2019-02-26T16:38:51.715Z,63.80
2019-02-26T16:41:20.800Z,62.30
2019-02-26T16:43:51.922Z,61.80
2019-02-26T16:46:21.200Z,63.50
2019-02-26T16:48:53.391Z,61.30
2019-02-26T16:51:21.798Z,58.50
2019-02-26T16:53:51.014Z,58.40
2019-02-26T16:56:21.845Z,58.70
2019-02-26T16:58:52.072Z,58.70
2019-02-26T17:01:21.756Z,60.80
2019-02-26T17:03:51.951Z,59.80
2019-02-26T17:06:21.518Z,57.60
2019-02-26T17:08:51.664Z,59.10
2019-02-26T17:11:21.016Z,61.20
2019-02-26T17:13:52.022Z,61.50
2019-02-26T17:16:21.083Z,61.10
2019-02-26T17:18:51.269Z,56.50
2019-02-26T17:21:22.521Z,56.10
2019-02-26T17:23:51.641Z,56.30
2019-02-26T17:26:21.540Z,57.30
2019-02-26T17:28:53.898Z,57.60
2019-02-26T17:31:23.293Z,58.50
2019-02-26T17:33:52.790Z,59.00
2019-02-26T17:36:25.505Z,58.00
2019-02-26T17:38:58.958Z,58.20
2019-02-26T17:41:31.846Z,59.80
2019-02-26T17:44:03.606Z,59.80
2019-02-26T17:46:33.103Z,61.30
2019-02-26T17:49:02.807Z,59.70
2019-02-26T17:51:33.042Z,60.40
2019-02-26T17:54:07.769Z,61.40
2019-02-26T17:56:39.165Z,61.90
2019-02-26T17:59:16.372Z,62.80
2019-02-26T18:01:43.642Z,63.40
2019-02-26T18:04:13.552Z,63.30
2019-02-26T18:06:45.273Z,63.90
2019-02-26T18:09:14.393Z,64.10
2019-02-26T18:11:46.485Z,63.00
2019-02-26T18:14:16.276Z,63.40
2019-02-26T18:16:45.294Z,61.70
2019-02-26T18:19:15.535Z,62.60
2019-02-26T18:21:45.146Z,62.90
2019-02-26T18:24:14.442Z,61.90
2019-02-26T18:26:45.425Z,62.50
2019-02-26T18:29:14.456Z,61.80
2019-02-26T18:31:43.571Z,61.60
2019-02-26T18:34:14.039Z,61.10
2019-02-26T18:36:46.416Z,57.20
2019-02-26T18:39:16.513Z,57.40
2019-02-26T18:41:52.317Z,58.50
2019-02-26T18:44:29.499Z,56.70
2019-02-26T18:46:58.952Z,56.00
2019-02-26T18:49:29.145Z,55.80
2019-02-26T18:52:00.080Z,55.90
2019-02-26T18:54:29.358Z,56.00
2019-02-26T18:56:59.107Z,56.00
2019-02-26T18:59:28.474Z,55.70
2019-02-26T19:01:57.518Z,54.00
2019-02-26T19:04:26.845Z,53.80
2019-02-26T19:06:59.391Z,53.50
2019-02-26T19:09:31.160Z,54.50
2019-02-26T19:12:00.571Z,54.20
2019-02-26T19:14:31.275Z,50.20
2019-02-26T19:17:05.240Z,49.40
2019-02-26T19:19:34.639Z,48.40
2019-02-26T19:22:04.318Z,48.40
2019-02-26T19:24:35.850Z,47.10
2019-02-26T19:27:05.906Z,49.10
2019-02-26T19:29:35.066Z,48.80
2019-02-26T19:32:05.653Z,47.90
2019-02-26T19:34:34.691Z,45.60
2019-02-26T19:37:04.654Z,45.10
2019-02-26T19:39:34.316Z,46.00
2019-02-26T19:42:05.051Z,45.30
2019-02-26T19:44:35.890Z,47.00
2019-02-26T19:47:05.937Z,45.30
2019-02-26T19:49:36.854Z,45.00
2019-02-26T19:52:06.122Z,46.30
2019-02-26T19:54:37.174Z,45.70
2019-02-26T19:57:06.279Z,45.50
2019-02-26T19:59:38.296Z,44.90
2019-02-26T20:02:07.473Z,45.50
2019-02-26T20:04:38.574Z,44.10
2019-02-26T20:07:08.357Z,42.80
2019-02-26T20:09:38.846Z,43.30
2019-02-26T20:12:10.073Z,43.60
2019-02-26T20:14:41.435Z,43.90
2019-02-26T20:17:14.917Z,44.30
2019-02-26T20:19:44.872Z,45.10
2019-02-26T20:22:14.239Z,45.40
2019-02-26T20:24:46.715Z,46.00
2019-02-26T20:27:21.663Z,47.90
2019-02-26T20:29:50.889Z,48.10
2019-02-26T20:32:20.424Z,47.60
2019-02-26T20:34:49.706Z,49.00
2019-02-26T20:37:24.464Z,48.10
2019-02-26T20:39:53.656Z,49.40
2019-02-26T20:42:26.808Z,48.90
2019-02-26T20:44:59.010Z,49.20
2019-02-26T20:47:31.172Z,49.40
2019-02-26T20:49:58.073Z,49.70
2019-02-26T20:52:27.122Z,48.20
2019-02-26T20:54:56.561Z,49.40
2019-02-26T20:57:26.714Z,49.20
2019-02-26T20:59:56.457Z,48.80
2019-02-26T21:02:25.858Z,48.80
2019-02-26T21:04:55.214Z,49.90
2019-02-26T21:07:25.908Z,49.70
2019-02-26T21:10:03.346Z,48.50
2019-02-26T21:12:28.576Z,48.80
2019-02-26T21:14:56.895Z,50.00
2019-02-26T21:17:26.340Z,48.40
2019-02-26T21:19:55.696Z,47.40
2019-02-26T21:22:25.811Z,47.10
2019-02-26T21:24:55.142Z,47.30
2019-02-26T21:27:25.936Z,47.80
2019-02-26T21:29:55.405Z,48.30
2019-02-26T21:32:26.279Z,47.80
2019-02-26T21:34:55.864Z,47.40
2019-02-26T21:37:25.315Z,47.40
2019-02-26T21:39:57.264Z,47.30
2019-02-26T21:42:28.823Z,48.30
2019-02-26T21:44:57.188Z,48.30
2019-02-26T21:47:26.300Z,49.00
2019-02-26T21:49:55.679Z,48.80
2019-02-26T21:52:25.583Z,49.10
2019-02-26T21:54:57.516Z,47.80
2019-02-26T21:57:26.222Z,48.40
2019-02-26T21:59:55.899Z,48.70
2019-02-26T22:02:25.214Z,48.30
2019-02-26T22:04:54.649Z,47.80
2019-02-26T22:07:23.789Z,48.40
2019-02-26T22:09:53.815Z,48.20
2019-02-26T22:12:24.962Z,48.30
2019-02-26T22:14:54.287Z,48.20
2019-02-26T22:17:25.212Z,48.90
2019-02-26T22:19:54.645Z,48.10
2019-02-26T22:22:25.965Z,49.40
2019-02-26T22:24:54.490Z,48.20
2019-02-26T22:27:23.764Z,48.40
2019-02-26T22:29:52.844Z,47.80
2019-02-26T22:32:27.434Z,48.30
2019-02-26T22:34:58.476Z,48.70
2019-02-26T22:37:29.671Z,48.50
2019-02-26T22:39:58.714Z,48.00
2019-02-26T22:42:28.121Z,48.80
2019-02-26T22:44:57.244Z,48.70
2019-02-26T22:47:26.652Z,48.70
2019-02-26T22:49:56.008Z,48.50
2019-02-26T22:52:25.126Z,49.20
2019-02-26T22:54:55.021Z,49.30
2019-02-26T22:57:27.559Z,49.10
2019-02-26T22:59:58.343Z,48.40
2019-02-26T23:02:32.514Z,48.70
2019-02-26T23:05:01.930Z,49.30
2019-02-26T23:07:39.162Z,49.30
2019-02-26T23:10:05.459Z,49.80
2019-02-26T23:12:34.520Z,49.90
2019-02-26T23:15:03.683Z,49.60
2019-02-26T23:17:33.106Z,49.20
2019-02-26T23:20:02.916Z,49.60
2019-02-26T23:22:32.360Z,50.50
2019-02-26T23:25:01.700Z,50.80
2019-02-26T23:27:31.358Z,51.20
2019-02-26T23:30:00.454Z,51.50
2019-02-26T23:32:29.556Z,51.30
2019-02-26T23:35:03.811Z,51.60
2019-02-26T23:37:34.553Z,52.20
2019-02-26T23:40:04.933Z,52.40
2019-02-26T23:42:34.033Z,53.20
2019-02-26T23:45:03.414Z,53.40
2019-02-26T23:47:34.992Z,54.30
2019-02-26T23:50:03.517Z,54.60
2019-02-26T23:52:32.925Z,54.80
2019-02-26T23:55:02.100Z,55.10
2019-02-26T23:57:31.608Z,55.20
